sensor_id;sensor_type;location;lat;lon;timestamp;P1;durP1;ratioP1;P2;durP2;ratioP2
11691;SDS011;33659;42.672;23.354;2023-10-31T00:02:14;8.05;;;3.10;;
11691;SDS011;33659;42.672;23.354;2023-10-31T00:04:41;6.15;;;2.65;;
11691;SDS011;33659;42.672;23.354;2023-10-31T00:07:08;6.00;;;2.78;;
11691;SDS011;33659;42.672;23.354;2023-10-31T00:09:34;7.18;;;2.80;;
11691;SDS011;33659;42.672;23.354;2023-10-31T00:12:01;5.47;;;2.65;;
11691;SDS011;33659;42.672;23.354;2023-10-31T00:14:28;5.10;;;2.95;;
11691;SDS011;33659;42.672;23.354;2023-10-31T00:16:56;5.68;;;2.50;;
11691;SDS011;33659;42.672;23.354;2023-10-31T00:19:23;6.72;;;2.80;;
11691;SDS011;33659;42.672;23.354;2023-10-31T00:21:50;3.38;;;2.65;;
11691;SDS011;33659;42.672;23.354;2023-10-31T00:24:16;4.55;;;2.60;;
11691;SDS011;33659;42.672;23.354;2023-10-31T00:26:43;4.95;;;2.90;;
11691;SDS011;33659;42.672;23.354;2023-10-31T00:29:10;6.30;;;3.25;;
11691;SDS011;33659;42.672;23.354;2023-10-31T00:31:36;10.73;;;3.75;;
11691;SDS011;33659;42.672;23.354;2023-10-31T00:34:07;7.60;;;3.10;;
11691;SDS011;33659;42.672;23.354;2023-10-31T00:36:35;6.75;;;3.40;;
11691;SDS011;33659;42.672;23.354;2023-10-31T00:39:02;3.42;;;2.78;;
11691;SDS011;33659;42.672;23.354;2023-10-31T00:41:29;3.67;;;3.00;;
11691;SDS011;33659;42.672;23.354;2023-10-31T00:43:56;5.72;;;2.92;;
11691;SDS011;33659;42.672;23.354;2023-10-31T00:46:24;5.57;;;3.75;;
11691;SDS011;33659;42.672;23.354;2023-10-31T00:48:50;9.95;;;4.45;;
11691;SDS011;33659;42.672;23.354;2023-10-31T00:51:18;6.93;;;4.75;;
11691;SDS011;33659;42.672;23.354;2023-10-31T00:53:45;7.35;;;5.10;;
11691;SDS011;33659;42.672;23.354;2023-10-31T00:56:12;9.07;;;5.32;;
11691;SDS011;33659;42.672;23.354;2023-10-31T00:58:39;14.68;;;6.85;;
11691;SDS011;33659;42.672;23.354;2023-10-31T01:01:05;10.63;;;4.55;;
11691;SDS011;33659;42.672;23.354;2023-10-31T01:03:32;10.80;;;6.10;;
11691;SDS011;33659;42.672;23.354;2023-10-31T01:05:59;9.60;;;4.43;;
11691;SDS011;33659;42.672;23.354;2023-10-31T01:08:27;4.60;;;3.47;;
11691;SDS011;33659;42.672;23.354;2023-10-31T01:10:55;6.80;;;3.72;;
11691;SDS011;33659;42.672;23.354;2023-10-31T01:13:22;6.25;;;3.05;;
11691;SDS011;33659;42.672;23.354;2023-10-31T01:15:48;5.18;;;2.80;;
11691;SDS011;33659;42.672;23.354;2023-10-31T01:18:15;5.32;;;2.92;;
11691;SDS011;33659;42.672;23.354;2023-10-31T01:20:42;5.78;;;3.00;;
11691;SDS011;33659;42.672;23.354;2023-10-31T01:23:09;5.03;;;2.70;;
11691;SDS011;33659;42.672;23.354;2023-10-31T01:25:37;3.08;;;2.70;;
11691;SDS011;33659;42.672;23.354;2023-10-31T01:28:03;6.60;;;2.95;;
11691;SDS011;33659;42.672;23.354;2023-10-31T01:30:30;4.75;;;2.85;;
11691;SDS011;33659;42.672;23.354;2023-10-31T01:32:57;5.28;;;4.00;;
11691;SDS011;33659;42.672;23.354;2023-10-31T01:35:24;7.30;;;4.03;;
11691;SDS011;33659;42.672;23.354;2023-10-31T01:37:50;9.30;;;4.70;;
11691;SDS011;33659;42.672;23.354;2023-10-31T01:40:17;9.00;;;4.32;;
11691;SDS011;33659;42.672;23.354;2023-10-31T01:42:45;6.53;;;3.80;;
11691;SDS011;33659;42.672;23.354;2023-10-31T01:45:12;6.97;;;3.63;;
11691;SDS011;33659;42.672;23.354;2023-10-31T01:47:39;5.70;;;4.03;;
11691;SDS011;33659;42.672;23.354;2023-10-31T01:50:06;4.85;;;3.95;;
11691;SDS011;33659;42.672;23.354;2023-10-31T01:52:34;5.65;;;3.63;;
11691;SDS011;33659;42.672;23.354;2023-10-31T01:55:02;4.57;;;3.38;;
11691;SDS011;33659;42.672;23.354;2023-10-31T01:57:31;5.20;;;3.88;;
11691;SDS011;33659;42.672;23.354;2023-10-31T01:59:59;4.70;;;3.00;;
11691;SDS011;33659;42.672;23.354;2023-10-31T02:02:26;4.28;;;3.75;;
11691;SDS011;33659;42.672;23.354;2023-10-31T02:04:55;5.00;;;2.95;;
11691;SDS011;33659;42.672;23.354;2023-10-31T02:07:23;7.80;;;3.07;;
11691;SDS011;33659;42.672;23.354;2023-10-31T02:09:49;3.03;;;2.70;;
11691;SDS011;33659;42.672;23.354;2023-10-31T02:12:33;7.28;;;3.10;;
11691;SDS011;33659;42.672;23.354;2023-10-31T02:15:02;3.80;;;3.10;;
11691;SDS011;33659;42.672;23.354;2023-10-31T02:17:29;3.28;;;2.60;;
11691;SDS011;33659;42.672;23.354;2023-10-31T02:19:56;5.67;;;2.80;;
11691;SDS011;33659;42.672;23.354;2023-10-31T02:22:25;3.43;;;2.80;;
11691;SDS011;33659;42.672;23.354;2023-10-31T02:24:51;2.90;;;2.40;;
11691;SDS011;33659;42.672;23.354;2023-10-31T02:27:18;3.28;;;2.70;;
11691;SDS011;33659;42.672;23.354;2023-10-31T02:29:45;5.37;;;3.13;;
11691;SDS011;33659;42.672;23.354;2023-10-31T02:32:11;4.70;;;3.13;;
11691;SDS011;33659;42.672;23.354;2023-10-31T02:34:38;4.60;;;2.70;;
11691;SDS011;33659;42.672;23.354;2023-10-31T02:37:05;4.23;;;3.27;;
11691;SDS011;33659;42.672;23.354;2023-10-31T02:39:33;4.75;;;2.85;;
11691;SDS011;33659;42.672;23.354;2023-10-31T02:42:00;3.55;;;2.83;;
11691;SDS011;33659;42.672;23.354;2023-10-31T02:44:27;6.03;;;2.83;;
11691;SDS011;33659;42.672;23.354;2023-10-31T02:46:56;5.05;;;3.00;;
11691;SDS011;33659;42.672;23.354;2023-10-31T02:49:22;5.50;;;3.10;;
11691;SDS011;33659;42.672;23.354;2023-10-31T02:51:49;4.18;;;2.90;;
11691;SDS011;33659;42.672;23.354;2023-10-31T02:54:16;4.13;;;2.72;;
11691;SDS011;33659;42.672;23.354;2023-10-31T02:56:44;4.00;;;2.67;;
11691;SDS011;33659;42.672;23.354;2023-10-31T02:59:11;3.83;;;2.75;;
11691;SDS011;33659;42.672;23.354;2023-10-31T03:01:38;2.50;;;2.30;;
11691;SDS011;33659;42.672;23.354;2023-10-31T03:04:05;5.05;;;2.20;;
11691;SDS011;33659;42.672;23.354;2023-10-31T03:06:31;5.72;;;2.95;;
11691;SDS011;33659;42.672;23.354;2023-10-31T03:08:58;3.15;;;2.50;;
11691;SDS011;33659;42.672;23.354;2023-10-31T03:11:25;3.83;;;2.45;;
11691;SDS011;33659;42.672;23.354;2023-10-31T03:13:54;3.65;;;2.70;;
11691;SDS011;33659;42.672;23.354;2023-10-31T03:16:21;7.00;;;2.90;;
11691;SDS011;33659;42.672;23.354;2023-10-31T03:18:48;3.22;;;2.92;;
11691;SDS011;33659;42.672;23.354;2023-10-31T03:21:15;3.20;;;2.92;;
11691;SDS011;33659;42.672;23.354;2023-10-31T03:23:42;3.40;;;3.08;;
11691;SDS011;33659;42.672;23.354;2023-10-31T03:26:09;5.43;;;3.50;;
11691;SDS011;33659;42.672;23.354;2023-10-31T03:28:36;4.95;;;3.17;;
11691;SDS011;33659;42.672;23.354;2023-10-31T03:31:04;5.28;;;2.90;;
11691;SDS011;33659;42.672;23.354;2023-10-31T03:33:31;4.35;;;3.17;;
11691;SDS011;33659;42.672;23.354;2023-10-31T03:35:58;4.20;;;3.05;;
11691;SDS011;33659;42.672;23.354;2023-10-31T03:38:24;6.82;;;3.47;;
11691;SDS011;33659;42.672;23.354;2023-10-31T03:40:51;4.93;;;2.88;;
11691;SDS011;33659;42.672;23.354;2023-10-31T03:43:18;4.13;;;3.35;;
11691;SDS011;33659;42.672;23.354;2023-10-31T03:45:45;6.63;;;3.05;;
11691;SDS011;33659;42.672;23.354;2023-10-31T03:48:15;5.10;;;2.97;;
11691;SDS011;33659;42.672;23.354;2023-10-31T03:50:42;7.40;;;2.90;;
11691;SDS011;33659;42.672;23.354;2023-10-31T03:53:09;4.25;;;2.90;;
11691;SDS011;33659;42.672;23.354;2023-10-31T03:55:36;3.20;;;2.63;;
11691;SDS011;33659;42.672;23.354;2023-10-31T03:58:03;5.00;;;2.72;;
11691;SDS011;33659;42.672;23.354;2023-10-31T04:00:30;6.05;;;2.60;;
11691;SDS011;33659;42.672;23.354;2023-10-31T04:02:57;4.97;;;3.22;;
11691;SDS011;33659;42.672;23.354;2023-10-31T04:05:25;4.40;;;2.65;;
11691;SDS011;33659;42.672;23.354;2023-10-31T04:07:52;4.32;;;3.00;;
11691;SDS011;33659;42.672;23.354;2023-10-31T04:10:19;3.90;;;3.08;;
11691;SDS011;33659;42.672;23.354;2023-10-31T04:12:46;3.90;;;3.35;;
11691;SDS011;33659;42.672;23.354;2023-10-31T04:15:13;3.90;;;2.88;;
11691;SDS011;33659;42.672;23.354;2023-10-31T04:17:40;5.82;;;2.80;;
11691;SDS011;33659;42.672;23.354;2023-10-31T04:20:07;3.95;;;2.75;;
11691;SDS011;33659;42.672;23.354;2023-10-31T04:22:35;2.83;;;2.58;;
11691;SDS011;33659;42.672;23.354;2023-10-31T04:25:02;5.88;;;2.97;;
11691;SDS011;33659;42.672;23.354;2023-10-31T04:27:30;7.68;;;2.75;;
11691;SDS011;33659;42.672;23.354;2023-10-31T04:29:56;4.00;;;3.20;;
11691;SDS011;33659;42.672;23.354;2023-10-31T04:32:23;3.92;;;2.95;;
11691;SDS011;33659;42.672;23.354;2023-10-31T04:34:50;3.85;;;3.00;;
11691;SDS011;33659;42.672;23.354;2023-10-31T04:37:17;4.10;;;2.50;;
11691;SDS011;33659;42.672;23.354;2023-10-31T04:39:45;3.60;;;2.65;;
11691;SDS011;33659;42.672;23.354;2023-10-31T04:42:12;5.03;;;2.40;;
11691;SDS011;33659;42.672;23.354;2023-10-31T04:44:38;6.63;;;3.15;;
11691;SDS011;33659;42.672;23.354;2023-10-31T04:47:05;6.20;;;3.30;;
11691;SDS011;33659;42.672;23.354;2023-10-31T04:49:34;7.57;;;3.70;;
11691;SDS011;33659;42.672;23.354;2023-10-31T04:52:01;3.90;;;3.38;;
11691;SDS011;33659;42.672;23.354;2023-10-31T04:54:28;3.00;;;2.70;;
11691;SDS011;33659;42.672;23.354;2023-10-31T04:56:57;5.03;;;3.07;;
11691;SDS011;33659;42.672;23.354;2023-10-31T04:59:23;4.03;;;2.73;;
11691;SDS011;33659;42.672;23.354;2023-10-31T05:01:50;5.23;;;3.07;;
11691;SDS011;33659;42.672;23.354;2023-10-31T05:04:17;4.75;;;2.88;;
11691;SDS011;33659;42.672;23.354;2023-10-31T05:06:44;5.03;;;3.00;;
11691;SDS011;33659;42.672;23.354;2023-10-31T05:09:11;9.10;;;3.57;;
11691;SDS011;33659;42.672;23.354;2023-10-31T05:11:38;6.43;;;3.43;;
11691;SDS011;33659;42.672;23.354;2023-10-31T05:14:07;4.18;;;3.63;;
11691;SDS011;33659;42.672;23.354;2023-10-31T05:16:38;5.45;;;3.70;;
11691;SDS011;33659;42.672;23.354;2023-10-31T05:19:05;13.00;;;3.08;;
11691;SDS011;33659;42.672;23.354;2023-10-31T05:21:32;5.07;;;3.20;;
11691;SDS011;33659;42.672;23.354;2023-10-31T05:24:00;5.70;;;3.67;;
11691;SDS011;33659;42.672;23.354;2023-10-31T05:26:26;9.90;;;3.58;;
11691;SDS011;33659;42.672;23.354;2023-10-31T05:28:54;5.43;;;3.25;;
11691;SDS011;33659;42.672;23.354;2023-10-31T05:31:23;4.97;;;3.35;;
11691;SDS011;33659;42.672;23.354;2023-10-31T05:33:50;3.25;;;2.90;;
11691;SDS011;33659;42.672;23.354;2023-10-31T05:36:18;4.43;;;3.50;;
11691;SDS011;33659;42.672;23.354;2023-10-31T05:38:45;7.40;;;3.72;;
11691;SDS011;33659;42.672;23.354;2023-10-31T05:41:12;4.50;;;3.67;;
11691;SDS011;33659;42.672;23.354;2023-10-31T05:43:39;8.70;;;3.60;;
11691;SDS011;33659;42.672;23.354;2023-10-31T05:46:06;5.73;;;3.60;;
11691;SDS011;33659;42.672;23.354;2023-10-31T05:48:36;4.57;;;3.20;;
11691;SDS011;33659;42.672;23.354;2023-10-31T05:51:03;5.10;;;3.40;;
11691;SDS011;33659;42.672;23.354;2023-10-31T05:53:30;7.28;;;3.63;;
11691;SDS011;33659;42.672;23.354;2023-10-31T05:55:59;6.00;;;3.28;;
11691;SDS011;33659;42.672;23.354;2023-10-31T05:58:26;6.35;;;3.60;;
11691;SDS011;33659;42.672;23.354;2023-10-31T06:00:53;5.18;;;3.65;;
11691;SDS011;33659;42.672;23.354;2023-10-31T06:03:19;6.57;;;3.80;;
11691;SDS011;33659;42.672;23.354;2023-10-31T06:05:47;7.50;;;4.13;;
11691;SDS011;33659;42.672;23.354;2023-10-31T06:08:14;14.23;;;5.10;;
11691;SDS011;33659;42.672;23.354;2023-10-31T06:10:41;11.10;;;5.90;;
11691;SDS011;33659;42.672;23.354;2023-10-31T06:13:08;9.70;;;5.78;;
11691;SDS011;33659;42.672;23.354;2023-10-31T06:15:34;13.20;;;6.68;;
11691;SDS011;33659;42.672;23.354;2023-10-31T06:18:01;12.10;;;6.38;;
11691;SDS011;33659;42.672;23.354;2023-10-31T06:20:28;14.80;;;6.43;;
11691;SDS011;33659;42.672;23.354;2023-10-31T06:22:58;11.80;;;6.82;;
11691;SDS011;33659;42.672;23.354;2023-10-31T06:25:25;20.42;;;7.13;;
11691;SDS011;33659;42.672;23.354;2023-10-31T06:27:52;17.88;;;7.25;;
11691;SDS011;33659;42.672;23.354;2023-10-31T06:30:19;12.18;;;7.30;;
11691;SDS011;33659;42.672;23.354;2023-10-31T06:32:46;14.10;;;7.03;;
11691;SDS011;33659;42.672;23.354;2023-10-31T06:35:13;20.35;;;7.07;;
11691;SDS011;33659;42.672;23.354;2023-10-31T06:37:39;20.98;;;7.45;;
11691;SDS011;33659;42.672;23.354;2023-10-31T06:40:08;12.85;;;6.68;;
11691;SDS011;33659;42.672;23.354;2023-10-31T06:42:36;13.15;;;5.88;;
11691;SDS011;33659;42.672;23.354;2023-10-31T06:45:03;13.13;;;6.35;;
11691;SDS011;33659;42.672;23.354;2023-10-31T06:47:30;15.25;;;7.22;;
11691;SDS011;33659;42.672;23.354;2023-10-31T06:49:57;10.07;;;6.55;;
11691;SDS011;33659;42.672;23.354;2023-10-31T06:52:23;15.27;;;6.68;;
11691;SDS011;33659;42.672;23.354;2023-10-31T06:54:50;15.10;;;6.47;;
11691;SDS011;33659;42.672;23.354;2023-10-31T06:57:18;11.88;;;6.40;;
11691;SDS011;33659;42.672;23.354;2023-10-31T06:59:45;9.65;;;6.03;;
11691;SDS011;33659;42.672;23.354;2023-10-31T07:02:12;16.83;;;6.90;;
11691;SDS011;33659;42.672;23.354;2023-10-31T07:04:39;13.80;;;7.32;;
11691;SDS011;33659;42.672;23.354;2023-10-31T07:07:05;13.13;;;6.47;;
11691;SDS011;33659;42.672;23.354;2023-10-31T07:09:32;10.73;;;6.13;;
11691;SDS011;33659;42.672;23.354;2023-10-31T07:11:59;13.82;;;7.15;;
11691;SDS011;33659;42.672;23.354;2023-10-31T07:14:27;14.77;;;6.80;;
11691;SDS011;33659;42.672;23.354;2023-10-31T07:16:55;8.30;;;5.82;;
11691;SDS011;33659;42.672;23.354;2023-10-31T07:19:22;13.32;;;6.68;;
11691;SDS011;33659;42.672;23.354;2023-10-31T07:21:49;8.98;;;6.10;;
11691;SDS011;33659;42.672;23.354;2023-10-31T07:24:16;10.52;;;5.57;;
11691;SDS011;33659;42.672;23.354;2023-10-31T07:26:43;10.55;;;6.03;;
11691;SDS011;33659;42.672;23.354;2023-10-31T07:29:09;10.55;;;6.63;;
11691;SDS011;33659;42.672;23.354;2023-10-31T07:31:38;7.97;;;6.03;;
11691;SDS011;33659;42.672;23.354;2023-10-31T07:34:05;10.43;;;6.72;;
11691;SDS011;33659;42.672;23.354;2023-10-31T07:36:32;12.25;;;5.55;;
11691;SDS011;33659;42.672;23.354;2023-10-31T07:39:00;9.20;;;5.32;;
11691;SDS011;33659;42.672;23.354;2023-10-31T07:41:27;8.13;;;5.45;;
11691;SDS011;33659;42.672;23.354;2023-10-31T07:43:53;13.13;;;5.88;;
11691;SDS011;33659;42.672;23.354;2023-10-31T07:46:20;16.92;;;5.25;;
11691;SDS011;33659;42.672;23.354;2023-10-31T07:48:49;9.15;;;5.38;;
11691;SDS011;33659;42.672;23.354;2023-10-31T07:51:16;9.18;;;5.13;;
11691;SDS011;33659;42.672;23.354;2023-10-31T07:53:43;9.18;;;5.45;;
11691;SDS011;33659;42.672;23.354;2023-10-31T07:56:15;9.95;;;5.93;;
11691;SDS011;33659;42.672;23.354;2023-10-31T07:58:42;9.68;;;5.05;;
11691;SDS011;33659;42.672;23.354;2023-10-31T08:01:08;9.32;;;5.30;;
11691;SDS011;33659;42.672;23.354;2023-10-31T08:03:36;9.50;;;4.82;;
11691;SDS011;33659;42.672;23.354;2023-10-31T08:06:05;11.02;;;5.15;;
11691;SDS011;33659;42.672;23.354;2023-10-31T08:08:33;8.65;;;5.15;;
11691;SDS011;33659;42.672;23.354;2023-10-31T08:11:00;8.25;;;4.93;;
11691;SDS011;33659;42.672;23.354;2023-10-31T08:13:26;8.07;;;4.70;;
11691;SDS011;33659;42.672;23.354;2023-10-31T08:15:53;8.43;;;4.50;;
11691;SDS011;33659;42.672;23.354;2023-10-31T08:18:21;11.02;;;6.22;;
11691;SDS011;33659;42.672;23.354;2023-10-31T08:20:48;6.57;;;4.60;;
11691;SDS011;33659;42.672;23.354;2023-10-31T08:23:17;11.32;;;5.13;;
11691;SDS011;33659;42.672;23.354;2023-10-31T08:25:44;7.70;;;4.57;;
11691;SDS011;33659;42.672;23.354;2023-10-31T08:28:11;4.88;;;3.70;;
11691;SDS011;33659;42.672;23.354;2023-10-31T08:30:38;10.48;;;4.68;;
11691;SDS011;33659;42.672;23.354;2023-10-31T08:33:05;14.48;;;4.30;;
11691;SDS011;33659;42.672;23.354;2023-10-31T08:35:32;7.60;;;4.40;;
11691;SDS011;33659;42.672;23.354;2023-10-31T08:37:58;5.53;;;3.35;;
11691;SDS011;33659;42.672;23.354;2023-10-31T08:40:27;7.75;;;3.80;;
11691;SDS011;33659;42.672;23.354;2023-10-31T08:42:53;5.07;;;3.40;;
11691;SDS011;33659;42.672;23.354;2023-10-31T08:45:20;8.80;;;3.67;;
11691;SDS011;33659;42.672;23.354;2023-10-31T08:47:47;6.65;;;3.53;;
11691;SDS011;33659;42.672;23.354;2023-10-31T08:50:15;5.38;;;3.25;;
11691;SDS011;33659;42.672;23.354;2023-10-31T08:52:42;5.82;;;3.53;;
11691;SDS011;33659;42.672;23.354;2023-10-31T08:55:08;7.60;;;4.28;;
11691;SDS011;33659;42.672;23.354;2023-10-31T08:57:36;5.65;;;3.55;;
11691;SDS011;33659;42.672;23.354;2023-10-31T09:00:04;7.03;;;3.35;;
11691;SDS011;33659;42.672;23.354;2023-10-31T09:02:32;9.05;;;3.40;;
11691;SDS011;33659;42.672;23.354;2023-10-31T09:04:59;9.70;;;4.03;;
11691;SDS011;33659;42.672;23.354;2023-10-31T09:07:25;8.30;;;3.58;;
11691;SDS011;33659;42.672;23.354;2023-10-31T09:09:52;10.30;;;3.63;;
11691;SDS011;33659;42.672;23.354;2023-10-31T09:12:19;9.65;;;4.50;;
11691;SDS011;33659;42.672;23.354;2023-10-31T09:14:47;7.60;;;3.92;;
11691;SDS011;33659;42.672;23.354;2023-10-31T09:17:14;10.32;;;4.45;;
11691;SDS011;33659;42.672;23.354;2023-10-31T09:19:41;8.27;;;4.13;;
11691;SDS011;33659;42.672;23.354;2023-10-31T09:22:07;7.38;;;4.32;;
11691;SDS011;33659;42.672;23.354;2023-10-31T09:24:34;10.82;;;4.22;;
11691;SDS011;33659;42.672;23.354;2023-10-31T09:27:01;11.57;;;4.97;;
11691;SDS011;33659;42.672;23.354;2023-10-31T09:29:28;10.82;;;5.35;;
11691;SDS011;33659;42.672;23.354;2023-10-31T09:31:56;9.75;;;4.38;;
11691;SDS011;33659;42.672;23.354;2023-10-31T09:34:24;8.73;;;4.00;;
11691;SDS011;33659;42.672;23.354;2023-10-31T09:36:51;10.73;;;4.63;;
11691;SDS011;33659;42.672;23.354;2023-10-31T09:39:17;6.05;;;3.80;;
11691;SDS011;33659;42.672;23.354;2023-10-31T09:41:44;11.60;;;4.93;;
11691;SDS011;33659;42.672;23.354;2023-10-31T09:44:11;8.02;;;4.85;;
11691;SDS011;33659;42.672;23.354;2023-10-31T09:46:37;6.30;;;4.53;;
11691;SDS011;33659;42.672;23.354;2023-10-31T09:49:07;14.75;;;5.20;;
11691;SDS011;33659;42.672;23.354;2023-10-31T09:51:36;7.88;;;4.07;;
11691;SDS011;33659;42.672;23.354;2023-10-31T09:54:04;10.48;;;4.93;;
11691;SDS011;33659;42.672;23.354;2023-10-31T09:56:33;8.52;;;3.75;;
11691;SDS011;33659;42.672;23.354;2023-10-31T09:59:00;9.48;;;3.97;;
11691;SDS011;33659;42.672;23.354;2023-10-31T10:01:27;8.35;;;3.60;;
11691;SDS011;33659;42.672;23.354;2023-10-31T10:03:54;9.35;;;3.70;;
11691;SDS011;33659;42.672;23.354;2023-10-31T10:06:23;8.38;;;4.53;;
11691;SDS011;33659;42.672;23.354;2023-10-31T10:08:51;8.95;;;3.53;;
11691;SDS011;33659;42.672;23.354;2023-10-31T10:11:20;6.70;;;3.65;;
11691;SDS011;33659;42.672;23.354;2023-10-31T10:13:48;6.78;;;3.50;;
11691;SDS011;33659;42.672;23.354;2023-10-31T10:16:27;6.65;;;3.70;;
11691;SDS011;33659;42.672;23.354;2023-10-31T10:18:54;8.35;;;3.60;;
11691;SDS011;33659;42.672;23.354;2023-10-31T10:21:21;5.57;;;3.63;;
11691;SDS011;33659;42.672;23.354;2023-10-31T10:23:49;8.63;;;3.60;;
11691;SDS011;33659;42.672;23.354;2023-10-31T10:26:18;9.82;;;3.55;;
11691;SDS011;33659;42.672;23.354;2023-10-31T10:28:46;9.25;;;3.33;;
11691;SDS011;33659;42.672;23.354;2023-10-31T10:31:14;14.02;;;3.40;;
11691;SDS011;33659;42.672;23.354;2023-10-31T10:33:41;7.22;;;3.40;;
11691;SDS011;33659;42.672;23.354;2023-10-31T10:36:08;6.90;;;2.60;;
11691;SDS011;33659;42.672;23.354;2023-10-31T10:38:36;5.55;;;2.95;;
11691;SDS011;33659;42.672;23.354;2023-10-31T10:41:08;5.45;;;2.42;;
11691;SDS011;33659;42.672;23.354;2023-10-31T10:43:37;11.45;;;2.88;;
11691;SDS011;33659;42.672;23.354;2023-10-31T10:46:05;7.43;;;2.95;;
11691;SDS011;33659;42.672;23.354;2023-10-31T10:48:36;9.10;;;3.67;;
11691;SDS011;33659;42.672;23.354;2023-10-31T10:51:13;7.82;;;3.13;;
11691;SDS011;33659;42.672;23.354;2023-10-31T10:53:48;9.25;;;2.80;;
11691;SDS011;33659;42.672;23.354;2023-10-31T10:56:19;7.82;;;2.78;;
11691;SDS011;33659;42.672;23.354;2023-10-31T10:58:55;6.40;;;2.95;;
11691;SDS011;33659;42.672;23.354;2023-10-31T11:01:28;8.00;;;3.10;;
11691;SDS011;33659;42.672;23.354;2023-10-31T11:03:57;7.85;;;3.55;;
11691;SDS011;33659;42.672;23.354;2023-10-31T11:06:25;4.85;;;2.70;;
11691;SDS011;33659;42.672;23.354;2023-10-31T11:08:53;4.50;;;3.00;;
11691;SDS011;33659;42.672;23.354;2023-10-31T11:11:23;5.57;;;2.83;;
11691;SDS011;33659;42.672;23.354;2023-10-31T11:13:51;5.75;;;2.95;;
11691;SDS011;33659;42.672;23.354;2023-10-31T11:16:20;7.25;;;2.78;;
11691;SDS011;33659;42.672;23.354;2023-10-31T11:18:52;8.10;;;3.05;;
11691;SDS011;33659;42.672;23.354;2023-10-31T11:21:21;6.22;;;3.08;;
11691;SDS011;33659;42.672;23.354;2023-10-31T11:23:56;7.47;;;2.65;;
11691;SDS011;33659;42.672;23.354;2023-10-31T11:26:26;9.52;;;2.70;;
11691;SDS011;33659;42.672;23.354;2023-10-31T11:29:02;4.50;;;2.60;;
11691;SDS011;33659;42.672;23.354;2023-10-31T11:31:30;5.80;;;2.60;;
11691;SDS011;33659;42.672;23.354;2023-10-31T11:33:57;4.93;;;2.88;;
11691;SDS011;33659;42.672;23.354;2023-10-31T11:36:23;8.55;;;2.72;;
11691;SDS011;33659;42.672;23.354;2023-10-31T11:38:50;8.07;;;2.85;;
11691;SDS011;33659;42.672;23.354;2023-10-31T11:41:38;3.72;;;2.40;;
11691;SDS011;33659;42.672;23.354;2023-10-31T11:44:05;4.97;;;2.65;;
11691;SDS011;33659;42.672;23.354;2023-10-31T11:46:32;11.30;;;2.70;;
11691;SDS011;33659;42.672;23.354;2023-10-31T11:48:59;8.82;;;2.80;;
11691;SDS011;33659;42.672;23.354;2023-10-31T11:51:27;4.05;;;2.45;;
11691;SDS011;33659;42.672;23.354;2023-10-31T11:53:54;12.45;;;3.65;;
11691;SDS011;33659;42.672;23.354;2023-10-31T11:56:21;4.70;;;2.53;;
11691;SDS011;33659;42.672;23.354;2023-10-31T11:59:00;6.03;;;2.83;;
11691;SDS011;33659;42.672;23.354;2023-10-31T12:01:28;4.50;;;2.10;;
11691;SDS011;33659;42.672;23.354;2023-10-31T12:03:55;3.65;;;2.38;;
11691;SDS011;33659;42.672;23.354;2023-10-31T12:06:22;7.68;;;2.75;;
11691;SDS011;33659;42.672;23.354;2023-10-31T12:08:49;4.43;;;2.30;;
11691;SDS011;33659;42.672;23.354;2023-10-31T12:11:16;3.70;;;2.45;;
11691;SDS011;33659;42.672;23.354;2023-10-31T12:13:52;2.65;;;2.33;;
11691;SDS011;33659;42.672;23.354;2023-10-31T12:16:25;9.35;;;2.40;;
11691;SDS011;33659;42.672;23.354;2023-10-31T12:18:54;16.35;;;3.30;;
11691;SDS011;33659;42.672;23.354;2023-10-31T12:21:33;4.30;;;2.95;;
11691;SDS011;33659;42.672;23.354;2023-10-31T12:24:04;6.78;;;2.63;;
11691;SDS011;33659;42.672;23.354;2023-10-31T12:26:32;4.88;;;2.45;;
11691;SDS011;33659;42.672;23.354;2023-10-31T12:29:06;5.10;;;3.28;;
11691;SDS011;33659;42.672;23.354;2023-10-31T12:31:41;4.38;;;2.80;;
11691;SDS011;33659;42.672;23.354;2023-10-31T12:34:09;5.82;;;2.63;;
11691;SDS011;33659;42.672;23.354;2023-10-31T12:36:35;10.05;;;4.13;;
11691;SDS011;33659;42.672;23.354;2023-10-31T12:39:03;6.28;;;2.70;;
11691;SDS011;33659;42.672;23.354;2023-10-31T12:41:34;7.47;;;3.03;;
11691;SDS011;33659;42.672;23.354;2023-10-31T12:44:01;4.75;;;2.80;;
11691;SDS011;33659;42.672;23.354;2023-10-31T12:46:30;9.90;;;2.92;;
11691;SDS011;33659;42.672;23.354;2023-10-31T12:48:59;7.95;;;3.45;;
11691;SDS011;33659;42.672;23.354;2023-10-31T12:51:26;3.67;;;2.97;;
11691;SDS011;33659;42.672;23.354;2023-10-31T12:53:54;8.23;;;2.63;;
11691;SDS011;33659;42.672;23.354;2023-10-31T12:56:39;8.30;;;2.53;;
11691;SDS011;33659;42.672;23.354;2023-10-31T12:59:07;7.25;;;2.75;;
11691;SDS011;33659;42.672;23.354;2023-10-31T13:01:36;3.55;;;2.65;;
11691;SDS011;33659;42.672;23.354;2023-10-31T13:04:04;3.75;;;2.90;;
11691;SDS011;33659;42.672;23.354;2023-10-31T13:06:32;4.57;;;2.58;;
11691;SDS011;33659;42.672;23.354;2023-10-31T13:08:58;8.88;;;3.88;;
11691;SDS011;33659;42.672;23.354;2023-10-31T13:11:29;5.13;;;2.55;;
11691;SDS011;33659;42.672;23.354;2023-10-31T13:13:56;5.50;;;2.92;;
11691;SDS011;33659;42.672;23.354;2023-10-31T13:16:23;3.38;;;2.58;;
11691;SDS011;33659;42.672;23.354;2023-10-31T13:18:51;5.78;;;2.65;;
11691;SDS011;33659;42.672;23.354;2023-10-31T13:21:20;3.75;;;2.60;;
11691;SDS011;33659;42.672;23.354;2023-10-31T13:23:46;6.85;;;3.00;;
11691;SDS011;33659;42.672;23.354;2023-10-31T13:26:13;4.68;;;2.83;;
11691;SDS011;33659;42.672;23.354;2023-10-31T13:28:40;4.90;;;2.72;;
11691;SDS011;33659;42.672;23.354;2023-10-31T13:31:07;11.98;;;3.00;;
11691;SDS011;33659;42.672;23.354;2023-10-31T13:33:36;3.33;;;2.72;;
11691;SDS011;33659;42.672;23.354;2023-10-31T13:36:03;8.02;;;2.80;;
11691;SDS011;33659;42.672;23.354;2023-10-31T13:38:32;16.65;;;3.28;;
11691;SDS011;33659;42.672;23.354;2023-10-31T13:41:01;7.00;;;2.90;;
11691;SDS011;33659;42.672;23.354;2023-10-31T13:43:27;10.00;;;3.28;;
11691;SDS011;33659;42.672;23.354;2023-10-31T13:45:54;9.80;;;3.28;;
11691;SDS011;33659;42.672;23.354;2023-10-31T13:48:21;7.65;;;2.95;;
11691;SDS011;33659;42.672;23.354;2023-10-31T13:50:48;7.68;;;3.10;;
11691;SDS011;33659;42.672;23.354;2023-10-31T13:53:15;4.72;;;2.50;;
11691;SDS011;33659;42.672;23.354;2023-10-31T13:55:43;22.75;;;5.10;;
11691;SDS011;33659;42.672;23.354;2023-10-31T13:58:10;6.72;;;3.50;;
11691;SDS011;33659;42.672;23.354;2023-10-31T14:00:37;9.25;;;3.10;;
11691;SDS011;33659;42.672;23.354;2023-10-31T14:03:03;5.97;;;2.78;;
11691;SDS011;33659;42.672;23.354;2023-10-31T14:05:30;9.05;;;2.53;;
11691;SDS011;33659;42.672;23.354;2023-10-31T14:07:57;9.00;;;2.85;;
11691;SDS011;33659;42.672;23.354;2023-10-31T14:10:25;7.50;;;3.45;;
11691;SDS011;33659;42.672;23.354;2023-10-31T14:12:53;7.28;;;2.53;;
11691;SDS011;33659;42.672;23.354;2023-10-31T14:15:20;4.88;;;2.80;;
11691;SDS011;33659;42.672;23.354;2023-10-31T14:17:47;6.45;;;3.03;;
11691;SDS011;33659;42.672;23.354;2023-10-31T14:20:14;8.23;;;3.00;;
11691;SDS011;33659;42.672;23.354;2023-10-31T14:22:46;5.85;;;3.00;;
11691;SDS011;33659;42.672;23.354;2023-10-31T14:25:13;5.93;;;3.17;;
11691;SDS011;33659;42.672;23.354;2023-10-31T14:27:40;7.90;;;3.17;;
11691;SDS011;33659;42.672;23.354;2023-10-31T14:30:09;9.15;;;3.20;;
11691;SDS011;33659;42.672;23.354;2023-10-31T14:32:37;11.00;;;3.10;;
11691;SDS011;33659;42.672;23.354;2023-10-31T14:35:05;7.70;;;3.05;;
11691;SDS011;33659;42.672;23.354;2023-10-31T14:37:32;8.23;;;2.95;;